Weather History for KBNW - November, 2012

Change the Weather History Date:

Thursday, November 1, 2012

  Actual Average Record
Temperature  
Mean Temperature 48 °F -  
Max Temperature 56 °F 56 °F 78 °F (1990)
Min Temperature 38 °F 35 °F -99 °F (1998)
Degree Days  
Heating Degree Days 18    
Moisture  
Dew Point 34 °F    
Average Humidity 59    
Maximum Humidity 72    
Minimum Humidity 40    
Precipitation  
Precipitation 0.00 in - - ()
Sea Level Pressure  
Sea Level Pressure 29.97 in    
Wind  
Wind Speed 9 mph (NW)    
Max Wind Speed 18 mph    
Max Gust Speed 22 mph    
Visibility 10 miles    
Events      
Averages and records for this station are not official NWS values.
T = Trace of Precipitation, MM = Missing Value Source: NWS Daily Summary

Daily Weather History Graph

Daily Weather History Graph

Search for Another Location

Airport or City:

Trip Planner

Search our weather history database for the weather conditions in past years. The results will help you decide how hot, cold, wet, or windy it might be!

Date:

Astronomy

Nov. 01, 2012 Rise Set
Actual Time 7:48 AM CDT 6:08 PM CDT
Civil Twilight 7:19 AM CDT 6:37 PM CDT
Nautical Twilight 6:46 AM CDT 7:10 PM CDT
Astronomical Twilight 6:14 AM CDT 7:43 PM CDT
Moon 8:04 PM CDT (11/1) 10:24 AM CDT (11/1)
Length of Visible Light 11h 17m
Length of Day
10h 19m
Waning Gibbous, 93% of the Moon is Illuminated
Nov 1
Waning Gibbous
Nov 6
Last Quarter
Nov 13
New
Nov 20
First Quarter
Nov 28
Full

Hourly Weather History & Observations

Time (CDT) Temp. Windchill Dew Point Humidity Pressure Visibility Wind Dir Wind Speed Gust Speed Precip Events Conditions
12:15 AM 43.7 °F 39.7 °F 27.3 °F 53% 29.98 in 10.0 mi WSW 6.9 mph - N/A   Scattered Clouds
12:35 AM 43.7 °F 40.3 °F 29.5 °F 57% 29.98 in 10.0 mi WSW 5.8 mph - N/A   Scattered Clouds
12:55 AM 45.3 °F 42.3 °F 29.7 °F 54% 29.97 in 10.0 mi WSW 5.8 mph - N/A   Scattered Clouds
1:15 AM 44.8 °F 41.6 °F 30.0 °F 56% 29.97 in 10.0 mi WSW 5.8 mph - N/A   Scattered Clouds
1:35 AM 45.3 °F 42.3 °F 29.5 °F 54% 29.97 in 10.0 mi WSW 5.8 mph - N/A   Scattered Clouds
1:55 AM 45.1 °F 41.4 °F 29.7 °F 55% 29.96 in 10.0 mi WSW 6.9 mph - N/A   Scattered Clouds
2:15 AM 44.8 °F 41.6 °F 30.6 °F 57% 29.96 in 10.0 mi WSW 5.8 mph - N/A   Scattered Clouds
2:35 AM 44.8 °F 41.6 °F 30.7 °F 58% 29.97 in 10.0 mi WSW 5.8 mph - N/A   Scattered Clouds
2:55 AM 45.5 °F 42.5 °F 32.0 °F 59% 29.96 in 10.0 mi WSW 5.8 mph - N/A   Scattered Clouds
3:15 AM 45.1 °F 42.8 °F 32.2 °F 60% 29.96 in 10.0 mi WSW 4.6 mph - N/A   Scattered Clouds
3:35 AM 44.8 °F 41.6 °F 32.2 °F 61% 29.96 in 10.0 mi West 5.8 mph - N/A   Scattered Clouds
3:55 AM 45.5 °F 42.5 °F 32.9 °F 61% 29.96 in 10.0 mi West 5.8 mph - N/A   Mostly Cloudy
4:15 AM 46.6 °F - 33.3 °F 60% 29.96 in 10.0 mi West 5.8 mph - N/A   Overcast
4:35 AM 46.9 °F - 33.8 °F 60% 29.96 in 10.0 mi West 5.8 mph - N/A   Overcast
5:15 AM 47.3 °F - 34.3 °F 61% 29.96 in 10.0 mi West 6.9 mph - N/A   Mostly Cloudy
5:35 AM 47.5 °F - 34.9 °F 62% 29.96 in 10.0 mi West 5.8 mph - N/A   Overcast
5:55 AM 46.4 °F 43.5 °F 34.7 °F 64% 29.95 in 10.0 mi West 5.8 mph - N/A   Mostly Cloudy
6:15 AM 46.0 °F 43.9 °F 34.7 °F 65% 29.95 in 10.0 mi West 4.6 mph - N/A   Clear
6:35 AM 46.0 °F 43.1 °F 34.9 °F 65% 29.95 in 10.0 mi WNW 5.8 mph - N/A   Clear
7:15 AM 46.4 °F 41.9 °F 35.6 °F 66% 29.94 in 10.0 mi WNW 9.2 mph - N/A   Clear
7:55 AM 45.9 °F 42.3 °F 35.8 °F 68% 29.95 in 10.0 mi WNW 6.9 mph - N/A   Clear
8:15 AM 46.8 °F - 36.7 °F 68% 29.95 in 10.0 mi NW 8.1 mph - N/A   Mostly Cloudy
8:35 AM 47.5 °F - 37.4 °F 68% 29.96 in 10.0 mi NNW 11.5 mph - N/A   Overcast
8:55 AM 48.2 °F - 38.3 °F 69% 29.97 in 10.0 mi NNW 11.5 mph - N/A   Overcast
9:15 AM 48.9 °F - 38.7 °F 68% 29.97 in 10.0 mi NNW 16.1 mph 20.7 mph N/A   Scattered Clouds
9:35 AM 49.5 °F - 38.8 °F 67% 29.97 in 10.0 mi North 18.4 mph 21.9 mph N/A   Clear
9:55 AM 50.2 °F - 38.7 °F 65% 29.97 in 10.0 mi North 13.8 mph - N/A   Clear
10:15 AM 51.1 °F - 39.0 °F 63% 29.98 in 10.0 mi North 12.7 mph - N/A   Clear
10:35 AM 52.0 °F - 39.7 °F 63% 29.98 in 10.0 mi NNW 16.1 mph - N/A   Clear
10:55 AM 52.3 °F - 39.7 °F 62% 29.98 in 10.0 mi NNW 17.3 mph - N/A   Clear
11:15 AM 52.9 °F - 39.2 °F 60% 29.99 in 10.0 mi NNW 16.1 mph - N/A   Clear
11:35 AM 53.8 °F - 39.2 °F 58% 29.99 in 10.0 mi NNW 17.3 mph - N/A   Clear
11:55 AM 54.0 °F - 39.0 °F 57% 29.99 in 10.0 mi North 15.0 mph - N/A   Clear
12:15 PM 55.0 °F - 39.6 °F 56% 29.98 in 10.0 mi North 15.0 mph 18.4 mph N/A   Clear
12:35 PM 55.6 °F - 38.3 °F 52% 29.98 in 10.0 mi North 13.8 mph 19.6 mph N/A   Clear
12:55 PM 55.6 °F - 37.9 °F 52% 29.97 in 10.0 mi NNW 18.4 mph - N/A   Clear
1:15 PM 55.8 °F - 38.1 °F 52% 29.98 in 10.0 mi NNW 16.1 mph 20.7 mph N/A   Clear
1:35 PM 55.8 °F - 37.8 °F 51% 29.96 in 10.0 mi NNW 10.4 mph 19.6 mph N/A   Clear
1:55 PM 56.3 °F - 38.7 °F 52% 29.96 in 10.0 mi NNW 13.8 mph 19.6 mph N/A   Clear
2:15 PM 56.3 °F - 39.6 °F 53% 29.96 in 10.0 mi NW 11.5 mph 18.4 mph N/A   Clear
2:35 PM 56.3 °F - 38.1 °F 51% 29.95 in 10.0 mi NNW 15.0 mph - N/A   Clear
2:55 PM 56.1 °F - 36.5 °F 48% 29.95 in 10.0 mi NNW 15.0 mph 18.4 mph N/A   Clear
3:15 PM 55.9 °F - 35.6 °F 46% 29.95 in 10.0 mi NW 15.0 mph - N/A   Clear
3:35 PM 55.9 °F - 35.4 °F 46% 29.94 in 10.0 mi NNW 11.5 mph - N/A   Clear
3:55 PM 55.8 °F - 33.6 °F 43% 29.94 in 10.0 mi NNW 13.8 mph 17.3 mph N/A   Clear
4:15 PM 55.4 °F - 32.5 °F 42% 29.95 in 10.0 mi NNW 15.0 mph 18.4 mph N/A   Clear
4:35 PM 55.4 °F - 32.2 °F 41% 29.95 in 10.0 mi NNW 12.7 mph - N/A   Clear
4:55 PM 54.3 °F - 30.6 °F 40% 29.95 in 10.0 mi North 10.4 mph - N/A   Clear
5:15 PM 52.7 °F - 31.5 °F 44% 29.96 in 10.0 mi NNW 8.1 mph - N/A   Clear
5:35 PM 52.0 °F - 31.5 °F 46% 29.95 in 10.0 mi NNW 9.2 mph - N/A   Clear
5:55 PM 50.2 °F - 32.2 °F 50% 29.96 in 10.0 mi NNW 8.1 mph - N/A   Clear
6:15 PM 47.8 °F - 32.0 °F 54% 29.95 in 10.0 mi NNW 8.1 mph - N/A   Clear
6:35 PM 45.9 °F 42.3 °F 31.6 °F 58% 29.96 in 10.0 mi NNW 6.9 mph - N/A   Clear
6:55 PM 44.8 °F 41.0 °F 31.8 °F 60% 29.96 in 10.0 mi NNW 6.9 mph - N/A   Clear
7:15 PM 43.7 °F 39.1 °F 31.8 °F 63% 29.97 in 10.0 mi NNW 8.1 mph - N/A   Clear
7:35 PM 43.3 °F 38.6 °F 31.8 °F 64% 29.98 in 10.0 mi NNW 8.1 mph - N/A   Clear
7:55 PM 42.8 °F 38.6 °F 31.6 °F 65% 29.98 in 10.0 mi NNW 6.9 mph - N/A   Clear
8:15 PM 41.9 °F 36.3 °F 31.5 °F 66% 29.99 in 10.0 mi NNW 9.2 mph - N/A   Clear
8:55 PM 42.3 °F 36.8 °F 31.1 °F 65% 29.98 in 10.0 mi North 9.2 mph - N/A   Clear
9:15 PM 41.4 °F 36.2 °F 31.1 °F 67% 29.99 in 10.0 mi North 8.1 mph - N/A   Clear
9:35 PM 41.9 °F 36.3 °F 31.1 °F 66% 30.00 in 10.0 mi North 9.2 mph - N/A   Clear
9:55 PM 40.6 °F 35.4 °F 31.1 °F 69% 30.01 in 10.0 mi NNW 8.1 mph - N/A   Clear
10:15 PM 41.0 °F 34.7 °F 31.1 °F 68% 30.00 in 10.0 mi North 10.4 mph - N/A   Clear
10:35 PM 40.5 °F 34.6 °F 31.1 °F 69% 30.01 in 10.0 mi North 9.2 mph - N/A   Clear
10:55 PM 40.3 °F 34.4 °F 30.9 °F 69% 30.01 in 10.0 mi North 9.2 mph - N/A   Clear
11:15 PM 39.4 °F 33.8 °F 30.6 °F 71% 30.01 in 10.0 mi North 8.1 mph - N/A   Clear
11:35 PM 39.2 °F 34.2 °F 30.2 °F 70% 30.02 in 10.0 mi North 6.9 mph - N/A   Clear
11:55 PM 38.5 °F 33.4 °F 30.0 °F 72% 30.02 in 10.0 mi North 6.9 mph - N/A   Clear